sensor_id;sensor_type;location;lat;lon;timestamp;P1;durP1;ratioP1;P2;durP2;ratioP2
9447;SDS011;4762;48.128;11.376;2023-06-10T03:27:02;5.03;;;2.97;;
9447;SDS011;4762;48.128;11.376;2023-06-10T03:29:05;5.70;;;2.90;;
9447;SDS011;4762;48.128;11.376;2023-06-10T04:02:41;6.63;;;2.70;;
9447;SDS011;4762;48.128;11.376;2023-06-10T04:23:11;5.70;;;2.80;;
9447;SDS011;4762;48.128;11.376;2023-06-10T04:25:13;7.93;;;2.90;;
9447;SDS011;4762;48.128;11.376;2023-06-10T04:27:15;4.40;;;2.67;;
9447;SDS011;4762;48.128;11.376;2023-06-10T04:45:04;6.30;;;3.80;;
9447;SDS011;4762;48.128;11.376;2023-06-10T04:52:26;6.20;;;3.83;;
9447;SDS011;4762;48.128;11.376;2023-06-10T04:54:28;6.70;;;4.13;;
9447;SDS011;4762;48.128;11.376;2023-06-10T05:51:22;6.63;;;3.70;;
9447;SDS011;4762;48.128;11.376;2023-06-10T05:53:25;6.23;;;3.23;;
9447;SDS011;4762;48.128;11.376;2023-06-10T07:24:49;5.90;;;2.30;;
9447;SDS011;4762;48.128;11.376;2023-06-10T07:26:52;4.90;;;3.03;;
9447;SDS011;4762;48.128;11.376;2023-06-10T07:54:51;4.13;;;2.10;;
9447;SDS011;4762;48.128;11.376;2023-06-10T08:12:22;4.40;;;1.90;;
9447;SDS011;4762;48.128;11.376;2023-06-10T08:19:41;7.73;;;2.83;;
9447;SDS011;4762;48.128;11.376;2023-06-10T08:50:24;3.60;;;1.83;;
9447;SDS011;4762;48.128;11.376;2023-06-10T09:05:28;5.60;;;2.07;;
9447;SDS011;4762;48.128;11.376;2023-06-10T09:17:30;3.90;;;1.60;;
9447;SDS011;4762;48.128;11.376;2023-06-10T10:09:21;3.83;;;1.57;;
9447;SDS011;4762;48.128;11.376;2023-06-10T10:16:30;4.07;;;1.80;;
9447;SDS011;4762;48.128;11.376;2023-06-10T10:26:09;5.10;;;2.33;;
9447;SDS011;4762;48.128;11.376;2023-06-10T10:28:12;4.90;;;2.27;;
9447;SDS011;4762;48.128;11.376;2023-06-10T10:35:25;4.87;;;2.47;;
9447;SDS011;4762;48.128;11.376;2023-06-10T11:05:37;3.80;;;1.50;;
9447;SDS011;4762;48.128;11.376;2023-06-10T11:38:38;4.20;;;1.60;;
9447;SDS011;4762;48.128;11.376;2023-06-10T11:50:43;4.00;;;1.40;;
9447;SDS011;4762;48.128;11.376;2023-06-10T11:55:24;4.10;;;1.70;;
9447;SDS011;4762;48.128;11.376;2023-06-10T12:01:53;5.10;;;2.17;;
9447;SDS011;4762;48.128;11.376;2023-06-10T12:04:08;10.43;;;1.83;;
9447;SDS011;4762;48.128;11.376;2023-06-10T12:06:10;4.50;;;1.70;;
9447;SDS011;4762;48.128;11.376;2023-06-10T12:08:12;4.63;;;1.53;;
9447;SDS011;4762;48.128;11.376;2023-06-10T12:19:27;3.50;;;1.33;;
9447;SDS011;4762;48.128;11.376;2023-06-10T12:21:30;4.43;;;1.47;;
9447;SDS011;4762;48.128;11.376;2023-06-10T12:23:32;4.57;;;1.77;;
9447;SDS011;4762;48.128;11.376;2023-06-10T12:25:34;6.33;;;1.60;;
9447;SDS011;4762;48.128;11.376;2023-06-10T12:27:37;3.53;;;1.17;;
9447;SDS011;4762;48.128;11.376;2023-06-10T12:32:05;4.80;;;2.13;;
9447;SDS011;4762;48.128;11.376;2023-06-10T12:39:26;3.90;;;1.70;;
9447;SDS011;4762;48.128;11.376;2023-06-10T13:07:47;3.60;;;1.30;;
9447;SDS011;4762;48.128;11.376;2023-06-10T13:09:49;3.87;;;1.60;;
9447;SDS011;4762;48.128;11.376;2023-06-10T13:11:51;5.23;;;1.50;;
9447;SDS011;4762;48.128;11.376;2023-06-10T13:16:20;6.80;;;1.70;;
9447;SDS011;4762;48.128;11.376;2023-06-10T13:41:24;3.70;;;1.50;;
9447;SDS011;4762;48.128;11.376;2023-06-10T13:48:42;5.60;;;2.17;;
9447;SDS011;4762;48.128;11.376;2023-06-10T13:53:12;4.97;;;2.20;;
9447;SDS011;4762;48.128;11.376;2023-06-10T13:57:52;7.60;;;2.20;;
9447;SDS011;4762;48.128;11.376;2023-06-10T13:59:54;4.23;;;1.70;;
9447;SDS011;4762;48.128;11.376;2023-06-10T14:01:56;4.80;;;2.23;;
9447;SDS011;4762;48.128;11.376;2023-06-10T14:03:58;3.93;;;1.53;;
9447;SDS011;4762;48.128;11.376;2023-06-10T14:11:16;4.50;;;1.80;;
9447;SDS011;4762;48.128;11.376;2023-06-10T14:18:34;5.90;;;2.17;;
9447;SDS011;4762;48.128;11.376;2023-06-10T14:23:16;7.20;;;2.23;;
9447;SDS011;4762;48.128;11.376;2023-06-10T14:25:20;4.50;;;1.93;;
9447;SDS011;4762;48.128;11.376;2023-06-10T14:27:23;5.10;;;1.77;;
9447;SDS011;4762;48.128;11.376;2023-06-10T14:32:04;4.10;;;1.50;;
9447;SDS011;4762;48.128;11.376;2023-06-10T14:39:22;3.80;;;1.80;;
9447;SDS011;4762;48.128;11.376;2023-06-10T14:46:40;5.73;;;1.50;;
9447;SDS011;4762;48.128;11.376;2023-06-10T14:48:42;4.90;;;2.00;;
9447;SDS011;4762;48.128;11.376;2023-06-10T14:58:16;8.30;;;2.10;;
9447;SDS011;4762;48.128;11.376;2023-06-10T15:02:55;3.63;;;1.30;;
9447;SDS011;4762;48.128;11.376;2023-06-10T15:04:57;4.83;;;1.77;;
9447;SDS011;4762;48.128;11.376;2023-06-10T15:09:25;4.10;;;1.90;;
9447;SDS011;4762;48.128;11.376;2023-06-10T15:11:27;4.20;;;1.93;;
9447;SDS011;4762;48.128;11.376;2023-06-10T15:13:30;5.27;;;2.10;;
9447;SDS011;4762;48.128;11.376;2023-06-10T15:15:32;4.17;;;1.43;;
9447;SDS011;4762;48.128;11.376;2023-06-10T15:20:07;4.33;;;1.80;;
9447;SDS011;4762;48.128;11.376;2023-06-10T15:22:10;3.60;;;1.43;;
9447;SDS011;4762;48.128;11.376;2023-06-10T15:26:38;5.83;;;1.67;;
9447;SDS011;4762;48.128;11.376;2023-06-10T15:28:40;3.77;;;1.50;;
9447;SDS011;4762;48.128;11.376;2023-06-10T15:30:52;3.77;;;1.50;;
9447;SDS011;4762;48.128;11.376;2023-06-10T15:32:55;3.40;;;1.27;;
9447;SDS011;4762;48.128;11.376;2023-06-10T15:34:57;6.23;;;1.50;;
9447;SDS011;4762;48.128;11.376;2023-06-10T15:36:59;4.00;;;1.67;;
9447;SDS011;4762;48.128;11.376;2023-06-10T15:39:03;3.70;;;1.40;;
9447;SDS011;4762;48.128;11.376;2023-06-10T15:41:05;3.30;;;1.10;;
9447;SDS011;4762;48.128;11.376;2023-06-10T15:45:24;3.93;;;1.57;;
9447;SDS011;4762;48.128;11.376;2023-06-10T15:47:30;3.93;;;1.50;;
9447;SDS011;4762;48.128;11.376;2023-06-10T15:49:32;4.40;;;1.93;;
9447;SDS011;4762;48.128;11.376;2023-06-10T15:51:35;3.67;;;1.37;;
9447;SDS011;4762;48.128;11.376;2023-06-10T15:53:37;5.20;;;1.83;;
9447;SDS011;4762;48.128;11.376;2023-06-10T15:57:51;3.57;;;1.20;;
9447;SDS011;4762;48.128;11.376;2023-06-10T15:59:53;4.70;;;2.10;;
9447;SDS011;4762;48.128;11.376;2023-06-10T16:01:56;7.60;;;2.50;;
9447;SDS011;4762;48.128;11.376;2023-06-10T16:03:58;4.50;;;2.00;;
9447;SDS011;4762;48.128;11.376;2023-06-10T16:06:01;4.53;;;1.20;;
9447;SDS011;4762;48.128;11.376;2023-06-10T16:08:03;5.20;;;2.33;;
9447;SDS011;4762;48.128;11.376;2023-06-10T16:10:06;3.63;;;1.57;;
9447;SDS011;4762;48.128;11.376;2023-06-10T16:12:08;3.90;;;1.60;;
9447;SDS011;4762;48.128;11.376;2023-06-10T16:14:11;5.10;;;1.43;;
9447;SDS011;4762;48.128;11.376;2023-06-10T16:16:13;3.80;;;1.60;;
9447;SDS011;4762;48.128;11.376;2023-06-10T16:18:15;3.37;;;1.60;;
9447;SDS011;4762;48.128;11.376;2023-06-10T16:20:17;5.00;;;1.70;;
9447;SDS011;4762;48.128;11.376;2023-06-10T16:22:20;4.10;;;1.30;;
9447;SDS011;4762;48.128;11.376;2023-06-10T16:24:23;4.37;;;2.00;;
9447;SDS011;4762;48.128;11.376;2023-06-10T16:26:25;3.77;;;1.70;;
9447;SDS011;4762;48.128;11.376;2023-06-10T16:28:29;4.30;;;1.73;;
9447;SDS011;4762;48.128;11.376;2023-06-10T16:30:32;4.13;;;1.90;;
9447;SDS011;4762;48.128;11.376;2023-06-10T16:32:34;4.10;;;2.03;;
9447;SDS011;4762;48.128;11.376;2023-06-10T16:34:37;4.63;;;1.63;;
9447;SDS011;4762;48.128;11.376;2023-06-10T16:36:39;21.93;;;2.70;;
9447;SDS011;4762;48.128;11.376;2023-06-10T16:38:41;5.40;;;2.20;;
9447;SDS011;4762;48.128;11.376;2023-06-10T16:40:44;4.40;;;1.40;;
9447;SDS011;4762;48.128;11.376;2023-06-10T16:42:47;3.63;;;1.60;;
9447;SDS011;4762;48.128;11.376;2023-06-10T16:44:49;4.60;;;1.50;;
9447;SDS011;4762;48.128;11.376;2023-06-10T16:46:51;4.10;;;1.70;;
9447;SDS011;4762;48.128;11.376;2023-06-10T16:48:55;3.80;;;1.70;;
9447;SDS011;4762;48.128;11.376;2023-06-10T16:51:00;4.57;;;2.03;;
9447;SDS011;4762;48.128;11.376;2023-06-10T16:53:03;6.40;;;1.63;;
9447;SDS011;4762;48.128;11.376;2023-06-10T16:55:05;5.70;;;2.20;;
9447;SDS011;4762;48.128;11.376;2023-06-10T16:57:07;5.60;;;2.60;;
9447;SDS011;4762;48.128;11.376;2023-06-10T16:59:10;4.77;;;1.90;;
9447;SDS011;4762;48.128;11.376;2023-06-10T17:01:12;4.10;;;1.97;;
9447;SDS011;4762;48.128;11.376;2023-06-10T17:03:14;5.03;;;2.50;;
9447;SDS011;4762;48.128;11.376;2023-06-10T17:05:16;6.07;;;2.40;;
9447;SDS011;4762;48.128;11.376;2023-06-10T17:07:18;5.33;;;2.53;;
9447;SDS011;4762;48.128;11.376;2023-06-10T17:09:22;3.70;;;1.83;;
9447;SDS011;4762;48.128;11.376;2023-06-10T17:11:25;3.80;;;1.60;;
9447;SDS011;4762;48.128;11.376;2023-06-10T17:13:27;4.43;;;1.73;;
9447;SDS011;4762;48.128;11.376;2023-06-10T17:15:29;5.00;;;1.73;;
9447;SDS011;4762;48.128;11.376;2023-06-10T17:17:32;4.03;;;1.90;;
9447;SDS011;4762;48.128;11.376;2023-06-10T17:19:34;4.93;;;2.13;;
9447;SDS011;4762;48.128;11.376;2023-06-10T17:21:36;7.07;;;1.77;;
9447;SDS011;4762;48.128;11.376;2023-06-10T17:23:39;4.70;;;1.80;;
9447;SDS011;4762;48.128;11.376;2023-06-10T17:25:41;5.03;;;2.30;;
9447;SDS011;4762;48.128;11.376;2023-06-10T17:27:44;5.27;;;2.63;;
9447;SDS011;4762;48.128;11.376;2023-06-10T17:29:46;6.10;;;3.03;;
9447;SDS011;4762;48.128;11.376;2023-06-10T17:31:48;5.70;;;2.90;;
9447;SDS011;4762;48.128;11.376;2023-06-10T17:33:50;6.00;;;2.70;;
9447;SDS011;4762;48.128;11.376;2023-06-10T17:35:53;5.23;;;2.67;;
9447;SDS011;4762;48.128;11.376;2023-06-10T17:37:55;5.00;;;2.93;;
9447;SDS011;4762;48.128;11.376;2023-06-10T17:39:57;6.63;;;2.63;;
9447;SDS011;4762;48.128;11.376;2023-06-10T17:41:59;8.43;;;2.00;;
9447;SDS011;4762;48.128;11.376;2023-06-10T17:44:02;4.97;;;2.53;;
9447;SDS011;4762;48.128;11.376;2023-06-10T17:46:04;4.07;;;1.93;;
9447;SDS011;4762;48.128;11.376;2023-06-10T17:48:06;4.90;;;2.20;;
9447;SDS011;4762;48.128;11.376;2023-06-10T17:50:09;5.47;;;2.30;;
9447;SDS011;4762;48.128;11.376;2023-06-10T17:52:11;4.43;;;1.60;;
9447;SDS011;4762;48.128;11.376;2023-06-10T17:54:13;5.33;;;1.93;;
9447;SDS011;4762;48.128;11.376;2023-06-10T17:56:16;4.50;;;1.87;;
9447;SDS011;4762;48.128;11.376;2023-06-10T17:58:18;3.33;;;1.37;;
9447;SDS011;4762;48.128;11.376;2023-06-10T18:00:20;5.07;;;1.60;;
9447;SDS011;4762;48.128;11.376;2023-06-10T18:02:23;8.33;;;1.80;;
9447;SDS011;4762;48.128;11.376;2023-06-10T18:04:26;6.67;;;2.60;;
9447;SDS011;4762;48.128;11.376;2023-06-10T18:06:29;5.03;;;2.40;;
9447;SDS011;4762;48.128;11.376;2023-06-10T18:08:31;4.67;;;1.90;;
9447;SDS011;4762;48.128;11.376;2023-06-10T18:10:34;4.67;;;2.07;;
9447;SDS011;4762;48.128;11.376;2023-06-10T18:12:36;3.90;;;2.10;;
9447;SDS011;4762;48.128;11.376;2023-06-10T18:14:39;4.63;;;1.90;;
9447;SDS011;4762;48.128;11.376;2023-06-10T18:16:41;4.20;;;1.97;;
9447;SDS011;4762;48.128;11.376;2023-06-10T18:18:43;4.57;;;2.47;;
9447;SDS011;4762;48.128;11.376;2023-06-10T18:20:46;4.07;;;1.93;;
9447;SDS011;4762;48.128;11.376;2023-06-10T18:22:48;7.20;;;3.97;;
9447;SDS011;4762;48.128;11.376;2023-06-10T18:24:51;5.30;;;2.57;;
9447;SDS011;4762;48.128;11.376;2023-06-10T18:26:53;5.70;;;2.83;;
9447;SDS011;4762;48.128;11.376;2023-06-10T18:28:55;5.47;;;2.23;;
9447;SDS011;4762;48.128;11.376;2023-06-10T18:30:58;5.30;;;2.57;;
9447;SDS011;4762;48.128;11.376;2023-06-10T18:32:59;5.97;;;2.80;;
9447;SDS011;4762;48.128;11.376;2023-06-10T18:35:02;6.90;;;2.70;;
9447;SDS011;4762;48.128;11.376;2023-06-10T18:37:06;3.90;;;1.93;;
9447;SDS011;4762;48.128;11.376;2023-06-10T18:39:06;4.20;;;2.17;;
9447;SDS011;4762;48.128;11.376;2023-06-10T18:41:09;4.60;;;1.93;;
9447;SDS011;4762;48.128;11.376;2023-06-10T18:43:11;3.80;;;1.77;;
9447;SDS011;4762;48.128;11.376;2023-06-10T18:45:14;7.50;;;2.50;;
9447;SDS011;4762;48.128;11.376;2023-06-10T18:47:16;5.57;;;2.47;;
9447;SDS011;4762;48.128;11.376;2023-06-10T18:49:18;5.80;;;3.00;;
9447;SDS011;4762;48.128;11.376;2023-06-10T18:51:20;5.30;;;2.33;;
9447;SDS011;4762;48.128;11.376;2023-06-10T18:53:23;4.63;;;2.03;;
9447;SDS011;4762;48.128;11.376;2023-06-10T18:55:25;3.90;;;1.97;;
9447;SDS011;4762;48.128;11.376;2023-06-10T18:57:27;3.87;;;2.07;;
9447;SDS011;4762;48.128;11.376;2023-06-10T18:59:29;5.47;;;2.53;;
9447;SDS011;4762;48.128;11.376;2023-06-10T19:01:32;4.57;;;2.60;;
9447;SDS011;4762;48.128;11.376;2023-06-10T19:03:34;4.50;;;2.20;;
9447;SDS011;4762;48.128;11.376;2023-06-10T19:05:36;3.70;;;1.90;;
9447;SDS011;4762;48.128;11.376;2023-06-10T19:07:38;4.40;;;2.10;;
9447;SDS011;4762;48.128;11.376;2023-06-10T19:09:42;4.60;;;2.20;;
9447;SDS011;4762;48.128;11.376;2023-06-10T19:11:45;5.60;;;1.93;;
9447;SDS011;4762;48.128;11.376;2023-06-10T19:13:47;4.23;;;1.80;;
9447;SDS011;4762;48.128;11.376;2023-06-10T19:15:49;4.50;;;2.10;;
9447;SDS011;4762;48.128;11.376;2023-06-10T19:17:52;4.47;;;2.30;;
9447;SDS011;4762;48.128;11.376;2023-06-10T19:19:54;3.73;;;1.77;;
9447;SDS011;4762;48.128;11.376;2023-06-10T19:21:56;4.40;;;2.37;;
9447;SDS011;4762;48.128;11.376;2023-06-10T19:23:58;3.97;;;1.83;;
9447;SDS011;4762;48.128;11.376;2023-06-10T19:26:01;3.80;;;2.10;;
9447;SDS011;4762;48.128;11.376;2023-06-10T19:28:05;4.10;;;1.97;;
9447;SDS011;4762;48.128;11.376;2023-06-10T19:30:07;4.13;;;2.00;;
9447;SDS011;4762;48.128;11.376;2023-06-10T19:32:10;4.00;;;2.00;;
9447;SDS011;4762;48.128;11.376;2023-06-10T19:34:14;4.13;;;2.30;;
9447;SDS011;4762;48.128;11.376;2023-06-10T19:36:16;4.00;;;1.80;;
9447;SDS011;4762;48.128;11.376;2023-06-10T19:38:19;5.73;;;2.60;;
9447;SDS011;4762;48.128;11.376;2023-06-10T19:40:22;3.47;;;1.70;;
9447;SDS011;4762;48.128;11.376;2023-06-10T19:42:24;7.63;;;3.47;;
9447;SDS011;4762;48.128;11.376;2023-06-10T19:44:27;4.60;;;2.30;;
9447;SDS011;4762;48.128;11.376;2023-06-10T19:46:31;3.93;;;1.93;;
9447;SDS011;4762;48.128;11.376;2023-06-10T19:48:34;5.20;;;2.87;;
9447;SDS011;4762;48.128;11.376;2023-06-10T19:50:36;3.97;;;2.20;;
9447;SDS011;4762;48.128;11.376;2023-06-10T19:52:38;5.23;;;2.90;;
9447;SDS011;4762;48.128;11.376;2023-06-10T19:54:41;5.70;;;3.53;;
9447;SDS011;4762;48.128;11.376;2023-06-10T19:56:43;6.13;;;3.43;;
9447;SDS011;4762;48.128;11.376;2023-06-10T19:58:45;4.67;;;2.70;;
9447;SDS011;4762;48.128;11.376;2023-06-10T20:00:47;7.37;;;3.23;;
9447;SDS011;4762;48.128;11.376;2023-06-10T20:02:50;6.37;;;3.30;;
9447;SDS011;4762;48.128;11.376;2023-06-10T20:07:24;5.43;;;3.00;;
9447;SDS011;4762;48.128;11.376;2023-06-10T20:09:26;4.63;;;2.33;;
9447;SDS011;4762;48.128;11.376;2023-06-10T20:11:29;4.43;;;2.50;;
9447;SDS011;4762;48.128;11.376;2023-06-10T20:13:32;6.50;;;3.77;;
9447;SDS011;4762;48.128;11.376;2023-06-10T20:18:13;6.13;;;3.37;;
9447;SDS011;4762;48.128;11.376;2023-06-10T20:20:15;6.03;;;3.33;;
9447;SDS011;4762;48.128;11.376;2023-06-10T20:22:18;6.60;;;3.37;;
9447;SDS011;4762;48.128;11.376;2023-06-10T20:24:21;5.10;;;2.97;;
9447;SDS011;4762;48.128;11.376;2023-06-10T20:28:54;5.40;;;2.90;;
9447;SDS011;4762;48.128;11.376;2023-06-10T20:30:57;5.40;;;3.27;;
9447;SDS011;4762;48.128;11.376;2023-06-10T20:33:00;4.60;;;2.63;;
9447;SDS011;4762;48.128;11.376;2023-06-10T20:35:04;4.50;;;2.60;;
9447;SDS011;4762;48.128;11.376;2023-06-10T20:37:07;6.63;;;3.37;;
9447;SDS011;4762;48.128;11.376;2023-06-10T20:39:10;5.13;;;2.70;;
9447;SDS011;4762;48.128;11.376;2023-06-10T20:41:13;4.67;;;3.20;;
9447;SDS011;4762;48.128;11.376;2023-06-10T20:43:15;5.30;;;3.13;;
9447;SDS011;4762;48.128;11.376;2023-06-10T20:45:22;5.60;;;2.47;;
9447;SDS011;4762;48.128;11.376;2023-06-10T20:47:25;5.50;;;2.60;;
9447;SDS011;4762;48.128;11.376;2023-06-10T20:49:27;4.07;;;2.33;;
9447;SDS011;4762;48.128;11.376;2023-06-10T20:51:29;10.33;;;3.50;;
9447;SDS011;4762;48.128;11.376;2023-06-10T20:53:31;3.90;;;2.33;;
9447;SDS011;4762;48.128;11.376;2023-06-10T20:55:34;6.10;;;2.97;;
9447;SDS011;4762;48.128;11.376;2023-06-10T20:59:57;4.73;;;2.73;;
9447;SDS011;4762;48.128;11.376;2023-06-10T21:01:59;4.43;;;2.77;;
9447;SDS011;4762;48.128;11.376;2023-06-10T21:04:02;6.23;;;2.87;;
9447;SDS011;4762;48.128;11.376;2023-06-10T21:06:04;4.57;;;2.63;;
9447;SDS011;4762;48.128;11.376;2023-06-10T21:08:07;4.70;;;2.93;;
9447;SDS011;4762;48.128;11.376;2023-06-10T21:10:10;4.33;;;2.33;;
9447;SDS011;4762;48.128;11.376;2023-06-10T21:12:13;5.03;;;2.80;;
9447;SDS011;4762;48.128;11.376;2023-06-10T21:14:18;5.93;;;3.10;;
9447;SDS011;4762;48.128;11.376;2023-06-10T21:16:22;5.00;;;2.80;;
9447;SDS011;4762;48.128;11.376;2023-06-10T21:18:24;5.00;;;3.10;;
9447;SDS011;4762;48.128;11.376;2023-06-10T21:20:26;4.77;;;2.97;;
9447;SDS011;4762;48.128;11.376;2023-06-10T21:22:29;5.30;;;2.70;;
9447;SDS011;4762;48.128;11.376;2023-06-10T21:24:31;4.70;;;2.53;;
9447;SDS011;4762;48.128;11.376;2023-06-10T21:26:34;5.50;;;3.40;;
9447;SDS011;4762;48.128;11.376;2023-06-10T21:28:37;6.80;;;4.50;;
9447;SDS011;4762;48.128;11.376;2023-06-10T21:30:39;5.30;;;3.27;;
9447;SDS011;4762;48.128;11.376;2023-06-10T21:32:41;7.03;;;4.23;;
9447;SDS011;4762;48.128;11.376;2023-06-10T21:34:43;6.03;;;3.30;;
9447;SDS011;4762;48.128;11.376;2023-06-10T21:36:46;11.33;;;4.10;;
9447;SDS011;4762;48.128;11.376;2023-06-10T21:38:49;7.60;;;4.70;;
9447;SDS011;4762;48.128;11.376;2023-06-10T21:40:51;4.70;;;3.43;;
9447;SDS011;4762;48.128;11.376;2023-06-10T21:42:55;6.60;;;3.97;;
9447;SDS011;4762;48.128;11.376;2023-06-10T21:44:57;6.40;;;4.13;;
9447;SDS011;4762;48.128;11.376;2023-06-10T21:47:01;5.40;;;2.80;;
9447;SDS011;4762;48.128;11.376;2023-06-10T21:49:03;7.40;;;3.90;;
9447;SDS011;4762;48.128;11.376;2023-06-10T21:51:06;5.00;;;3.07;;
9447;SDS011;4762;48.128;11.376;2023-06-10T21:53:08;5.77;;;3.50;;
9447;SDS011;4762;48.128;11.376;2023-06-10T21:55:11;3.80;;;2.07;;
9447;SDS011;4762;48.128;11.376;2023-06-10T21:57:14;4.60;;;2.70;;
9447;SDS011;4762;48.128;11.376;2023-06-10T21:59:17;6.10;;;3.40;;
9447;SDS011;4762;48.128;11.376;2023-06-10T22:01:20;7.07;;;3.77;;
9447;SDS011;4762;48.128;11.376;2023-06-10T22:03:22;6.87;;;3.60;;
9447;SDS011;4762;48.128;11.376;2023-06-10T22:05:25;8.30;;;2.90;;
9447;SDS011;4762;48.128;11.376;2023-06-10T22:07:28;8.67;;;2.77;;
9447;SDS011;4762;48.128;11.376;2023-06-10T22:09:31;7.27;;;4.50;;
9447;SDS011;4762;48.128;11.376;2023-06-10T22:11:33;3.87;;;2.37;;
9447;SDS011;4762;48.128;11.376;2023-06-10T22:13:37;4.90;;;2.40;;
9447;SDS011;4762;48.128;11.376;2023-06-10T22:15:39;3.90;;;2.27;;
9447;SDS011;4762;48.128;11.376;2023-06-10T22:17:44;5.43;;;2.70;;
9447;SDS011;4762;48.128;11.376;2023-06-10T22:19:46;6.93;;;2.90;;
9447;SDS011;4762;48.128;11.376;2023-06-10T22:21:49;5.50;;;2.70;;
9447;SDS011;4762;48.128;11.376;2023-06-10T22:23:52;4.83;;;2.80;;
9447;SDS011;4762;48.128;11.376;2023-06-10T22:25:55;4.50;;;2.67;;
9447;SDS011;4762;48.128;11.376;2023-06-10T22:27:57;4.27;;;2.57;;
9447;SDS011;4762;48.128;11.376;2023-06-10T22:30:00;9.37;;;3.40;;
9447;SDS011;4762;48.128;11.376;2023-06-10T22:32:03;4.33;;;2.27;;
9447;SDS011;4762;48.128;11.376;2023-06-10T22:34:06;6.30;;;2.73;;
9447;SDS011;4762;48.128;11.376;2023-06-10T22:36:08;5.17;;;3.17;;
9447;SDS011;4762;48.128;11.376;2023-06-10T22:38:11;3.43;;;2.10;;
9447;SDS011;4762;48.128;11.376;2023-06-10T22:40:13;7.30;;;3.47;;
9447;SDS011;4762;48.128;11.376;2023-06-10T22:42:16;5.13;;;2.77;;
9447;SDS011;4762;48.128;11.376;2023-06-10T22:44:18;6.90;;;3.07;;
9447;SDS011;4762;48.128;11.376;2023-06-10T22:46:20;4.43;;;2.77;;
9447;SDS011;4762;48.128;11.376;2023-06-10T22:48:23;7.17;;;2.60;;
9447;SDS011;4762;48.128;11.376;2023-06-10T22:50:25;4.17;;;2.10;;
9447;SDS011;4762;48.128;11.376;2023-06-10T22:52:28;6.60;;;3.03;;
9447;SDS011;4762;48.128;11.376;2023-06-10T22:54:30;4.40;;;2.67;;
9447;SDS011;4762;48.128;11.376;2023-06-10T22:56:33;4.60;;;2.53;;
9447;SDS011;4762;48.128;11.376;2023-06-10T22:58:35;4.27;;;2.37;;
9447;SDS011;4762;48.128;11.376;2023-06-10T23:00:39;4.00;;;2.40;;
9447;SDS011;4762;48.128;11.376;2023-06-10T23:02:42;4.00;;;2.33;;
9447;SDS011;4762;48.128;11.376;2023-06-10T23:04:45;6.17;;;3.20;;
9447;SDS011;4762;48.128;11.376;2023-06-10T23:06:47;3.60;;;2.07;;
9447;SDS011;4762;48.128;11.376;2023-06-10T23:08:51;4.67;;;3.00;;
9447;SDS011;4762;48.128;11.376;2023-06-10T23:10:54;5.23;;;2.87;;
9447;SDS011;4762;48.128;11.376;2023-06-10T23:12:58;3.90;;;1.97;;
9447;SDS011;4762;48.128;11.376;2023-06-10T23:15:00;4.10;;;2.10;;
9447;SDS011;4762;48.128;11.376;2023-06-10T23:17:03;9.50;;;2.80;;
9447;SDS011;4762;48.128;11.376;2023-06-10T23:19:05;4.30;;;2.30;;
9447;SDS011;4762;48.128;11.376;2023-06-10T23:21:08;4.00;;;2.43;;
9447;SDS011;4762;48.128;11.376;2023-06-10T23:23:10;4.50;;;2.37;;
9447;SDS011;4762;48.128;11.376;2023-06-10T23:25:14;3.87;;;2.40;;
9447;SDS011;4762;48.128;11.376;2023-06-10T23:27:17;4.03;;;2.27;;
9447;SDS011;4762;48.128;11.376;2023-06-10T23:29:19;3.77;;;2.20;;
9447;SDS011;4762;48.128;11.376;2023-06-10T23:31:21;4.17;;;2.13;;
9447;SDS011;4762;48.128;11.376;2023-06-10T23:33:25;6.10;;;2.80;;
9447;SDS011;4762;48.128;11.376;2023-06-10T23:35:29;4.33;;;2.20;;
9447;SDS011;4762;48.128;11.376;2023-06-10T23:37:32;5.27;;;2.83;;
9447;SDS011;4762;48.128;11.376;2023-06-10T23:39:34;4.47;;;2.97;;
9447;SDS011;4762;48.128;11.376;2023-06-10T23:41:36;5.90;;;3.20;;
9447;SDS011;4762;48.128;11.376;2023-06-10T23:43:39;6.33;;;3.77;;
9447;SDS011;4762;48.128;11.376;2023-06-10T23:45:42;6.70;;;3.73;;
9447;SDS011;4762;48.128;11.376;2023-06-10T23:47:45;5.27;;;2.83;;
9447;SDS011;4762;48.128;11.376;2023-06-10T23:49:47;4.13;;;2.40;;
9447;SDS011;4762;48.128;11.376;2023-06-10T23:51:50;4.60;;;2.60;;
9447;SDS011;4762;48.128;11.376;2023-06-10T23:53:52;6.57;;;3.10;;
9447;SDS011;4762;48.128;11.376;2023-06-10T23:55:54;4.00;;;2.60;;
9447;SDS011;4762;48.128;11.376;2023-06-10T23:57:57;5.83;;;2.73;;
